sensor_id;sensor_type;location;lat;lon;timestamp;P1;durP1;ratioP1;P2;durP2;ratioP2
18931;SDS011;9598;50.954;3.112;2022-11-12T00:04:16;16.52;;;14.93;;
18931;SDS011;9598;50.954;3.112;2022-11-12T00:09:37;16.45;;;14.80;;
18931;SDS011;9598;50.954;3.112;2022-11-12T00:14:58;15.60;;;14.07;;
18931;SDS011;9598;50.954;3.112;2022-11-12T00:20:19;17.45;;;15.75;;
18931;SDS011;9598;50.954;3.112;2022-11-12T00:25:40;16.25;;;14.73;;
18931;SDS011;9598;50.954;3.112;2022-11-12T00:31:05;15.63;;;14.13;;
18931;SDS011;9598;50.954;3.112;2022-11-12T00:36:28;15.45;;;14.05;;
18931;SDS011;9598;50.954;3.112;2022-11-12T00:41:49;16.38;;;14.65;;
18931;SDS011;9598;50.954;3.112;2022-11-12T00:47:10;16.73;;;14.98;;
18931;SDS011;9598;50.954;3.112;2022-11-12T00:52:32;18.48;;;15.13;;
18931;SDS011;9598;50.954;3.112;2022-11-12T00:57:52;15.30;;;13.25;;
18931;SDS011;9598;50.954;3.112;2022-11-12T01:03:13;17.02;;;15.23;;
18931;SDS011;9598;50.954;3.112;2022-11-12T01:08:35;16.35;;;14.68;;
18931;SDS011;9598;50.954;3.112;2022-11-12T01:13:57;15.38;;;13.77;;
18931;SDS011;9598;50.954;3.112;2022-11-12T01:19:18;15.18;;;13.68;;
18931;SDS011;9598;50.954;3.112;2022-11-12T01:24:40;14.57;;;13.13;;
18931;SDS011;9598;50.954;3.112;2022-11-12T01:30:01;14.23;;;12.73;;
18931;SDS011;9598;50.954;3.112;2022-11-12T01:35:22;14.50;;;12.95;;
18931;SDS011;9598;50.954;3.112;2022-11-12T01:40:44;13.18;;;11.88;;
18931;SDS011;9598;50.954;3.112;2022-11-12T01:46:06;13.25;;;11.95;;
18931;SDS011;9598;50.954;3.112;2022-11-12T01:51:34;13.43;;;12.00;;
18931;SDS011;9598;50.954;3.112;2022-11-12T01:57:00;13.63;;;12.23;;
18931;SDS011;9598;50.954;3.112;2022-11-12T02:02:21;12.57;;;11.38;;
18931;SDS011;9598;50.954;3.112;2022-11-12T02:07:42;13.00;;;11.73;;
18931;SDS011;9598;50.954;3.112;2022-11-12T02:13:06;13.32;;;11.93;;
18931;SDS011;9598;50.954;3.112;2022-11-12T02:18:45;13.43;;;12.00;;
18931;SDS011;9598;50.954;3.112;2022-11-12T02:29:51;11.63;;;10.57;;
18931;SDS011;9598;50.954;3.112;2022-11-12T02:35:11;11.52;;;10.32;;
18931;SDS011;9598;50.954;3.112;2022-11-12T02:40:33;12.18;;;10.98;;
18931;SDS011;9598;50.954;3.112;2022-11-12T02:45:54;11.55;;;10.35;;
18931;SDS011;9598;50.954;3.112;2022-11-12T02:51:15;10.95;;;9.95;;
18931;SDS011;9598;50.954;3.112;2022-11-12T02:56:37;10.48;;;9.48;;
18931;SDS011;9598;50.954;3.112;2022-11-12T03:01:57;10.55;;;9.63;;
18931;SDS011;9598;50.954;3.112;2022-11-12T03:07:18;11.70;;;10.57;;
18931;SDS011;9598;50.954;3.112;2022-11-12T03:12:40;11.70;;;10.45;;
18931;SDS011;9598;50.954;3.112;2022-11-12T03:18:00;10.32;;;9.43;;
18931;SDS011;9598;50.954;3.112;2022-11-12T03:23:21;10.93;;;9.90;;
18931;SDS011;9598;50.954;3.112;2022-11-12T03:28:43;10.80;;;9.80;;
18931;SDS011;9598;50.954;3.112;2022-11-12T03:34:04;10.32;;;9.43;;
18931;SDS011;9598;50.954;3.112;2022-11-12T03:39:25;10.88;;;9.88;;
18931;SDS011;9598;50.954;3.112;2022-11-12T03:44:47;10.98;;;9.98;;
18931;SDS011;9598;50.954;3.112;2022-11-12T03:50:08;11.23;;;10.13;;
18931;SDS011;9598;50.954;3.112;2022-11-12T03:55:28;10.32;;;9.43;;
18931;SDS011;9598;50.954;3.112;2022-11-12T04:00:51;10.20;;;9.30;;
18931;SDS011;9598;50.954;3.112;2022-11-12T04:06:11;10.98;;;10.00;;
18931;SDS011;9598;50.954;3.112;2022-11-12T04:11:50;10.50;;;9.60;;
18931;SDS011;9598;50.954;3.112;2022-11-12T04:17:12;9.98;;;9.10;;
18931;SDS011;9598;50.954;3.112;2022-11-12T04:22:50;10.07;;;9.07;;
18931;SDS011;9598;50.954;3.112;2022-11-12T04:28:11;10.35;;;9.35;;
18931;SDS011;9598;50.954;3.112;2022-11-12T04:33:33;9.90;;;8.90;;
18931;SDS011;9598;50.954;3.112;2022-11-12T04:38:53;10.20;;;9.20;;
18931;SDS011;9598;50.954;3.112;2022-11-12T04:44:14;10.75;;;9.75;;
18931;SDS011;9598;50.954;3.112;2022-11-12T04:49:56;9.68;;;8.60;;
18931;SDS011;9598;50.954;3.112;2022-11-12T04:55:16;9.30;;;8.50;;
18931;SDS011;9598;50.954;3.112;2022-11-12T05:00:37;9.65;;;8.73;;
18931;SDS011;9598;50.954;3.112;2022-11-12T05:06:00;10.27;;;9.27;;
18931;SDS011;9598;50.954;3.112;2022-11-12T05:11:22;10.48;;;9.50;;
18931;SDS011;9598;50.954;3.112;2022-11-12T05:16:43;10.77;;;9.70;;
18931;SDS011;9598;50.954;3.112;2022-11-12T05:22:05;9.77;;;8.88;;
18931;SDS011;9598;50.954;3.112;2022-11-12T05:27:25;11.05;;;9.95;;
18931;SDS011;9598;50.954;3.112;2022-11-12T05:32:46;10.23;;;9.30;;
18931;SDS011;9598;50.954;3.112;2022-11-12T05:38:08;11.15;;;9.93;;
18931;SDS011;9598;50.954;3.112;2022-11-12T05:43:29;10.77;;;9.68;;
18931;SDS011;9598;50.954;3.112;2022-11-12T05:48:49;10.15;;;9.13;;
18931;SDS011;9598;50.954;3.112;2022-11-12T05:54:11;12.27;;;10.05;;
18931;SDS011;9598;50.954;3.112;2022-11-12T05:59:32;11.80;;;10.40;;
18931;SDS011;9598;50.954;3.112;2022-11-12T06:04:53;10.48;;;9.57;;
18931;SDS011;9598;50.954;3.112;2022-11-12T06:10:14;11.18;;;10.07;;
18931;SDS011;9598;50.954;3.112;2022-11-12T06:15:35;11.60;;;10.43;;
18931;SDS011;9598;50.954;3.112;2022-11-12T06:21:00;10.73;;;9.63;;
18931;SDS011;9598;50.954;3.112;2022-11-12T06:26:42;11.43;;;10.38;;
18931;SDS011;9598;50.954;3.112;2022-11-12T06:32:02;12.02;;;10.93;;
18931;SDS011;9598;50.954;3.112;2022-11-12T06:37:23;12.32;;;11.23;;
18931;SDS011;9598;50.954;3.112;2022-11-12T06:42:45;17.52;;;15.80;;
18931;SDS011;9598;50.954;3.112;2022-11-12T06:48:06;14.52;;;13.23;;
18931;SDS011;9598;50.954;3.112;2022-11-12T06:53:26;11.13;;;10.05;;
18931;SDS011;9598;50.954;3.112;2022-11-12T06:58:49;11.20;;;10.02;;
18931;SDS011;9598;50.954;3.112;2022-11-12T07:04:09;10.25;;;9.25;;
18931;SDS011;9598;50.954;3.112;2022-11-12T07:09:29;11.40;;;10.23;;
18931;SDS011;9598;50.954;3.112;2022-11-12T07:14:51;11.20;;;10.02;;
18931;SDS011;9598;50.954;3.112;2022-11-12T07:20:13;11.15;;;10.05;;
18931;SDS011;9598;50.954;3.112;2022-11-12T07:25:34;10.80;;;9.68;;
18931;SDS011;9598;50.954;3.112;2022-11-12T07:30:56;11.40;;;10.05;;
18931;SDS011;9598;50.954;3.112;2022-11-12T07:36:18;10.30;;;9.07;;
18931;SDS011;9598;50.954;3.112;2022-11-12T07:41:39;10.45;;;9.48;;
18931;SDS011;9598;50.954;3.112;2022-11-12T07:47:02;11.15;;;10.05;;
18931;SDS011;9598;50.954;3.112;2022-11-12T07:52:22;13.30;;;11.90;;
18931;SDS011;9598;50.954;3.112;2022-11-12T07:57:43;10.30;;;9.20;;
18931;SDS011;9598;50.954;3.112;2022-11-12T08:03:05;11.40;;;10.18;;
18931;SDS011;9598;50.954;3.112;2022-11-12T08:08:25;11.68;;;10.48;;
18931;SDS011;9598;50.954;3.112;2022-11-12T08:13:46;17.52;;;13.95;;
18931;SDS011;9598;50.954;3.112;2022-11-12T08:19:08;33.65;;;21.45;;
18931;SDS011;9598;50.954;3.112;2022-11-12T08:24:28;43.35;;;25.65;;
18931;SDS011;9598;50.954;3.112;2022-11-12T08:29:49;52.85;;;26.77;;
18931;SDS011;9598;50.954;3.112;2022-11-12T08:35:10;51.28;;;28.13;;
18931;SDS011;9598;50.954;3.112;2022-11-12T08:40:31;57.17;;;33.25;;
18931;SDS011;9598;50.954;3.112;2022-11-12T08:45:52;49.75;;;27.80;;
18931;SDS011;9598;50.954;3.112;2022-11-12T08:51:15;53.90;;;26.00;;
18931;SDS011;9598;50.954;3.112;2022-11-12T08:56:35;47.50;;;26.77;;
18931;SDS011;9598;50.954;3.112;2022-11-12T09:01:56;38.67;;;21.15;;
18931;SDS011;9598;50.954;3.112;2022-11-12T09:07:18;29.77;;;18.90;;
18931;SDS011;9598;50.954;3.112;2022-11-12T09:12:38;13.25;;;11.63;;
18931;SDS011;9598;50.954;3.112;2022-11-12T09:17:59;14.35;;;12.95;;
18931;SDS011;9598;50.954;3.112;2022-11-12T09:23:22;12.05;;;8.77;;
18931;SDS011;9598;50.954;3.112;2022-11-12T09:28:43;11.63;;;10.52;;
18931;SDS011;9598;50.954;3.112;2022-11-12T09:34:03;11.63;;;9.55;;
18931;SDS011;9598;50.954;3.112;2022-11-12T09:39:25;10.73;;;9.73;;
18931;SDS011;9598;50.954;3.112;2022-11-12T09:44:48;11.18;;;8.90;;
18931;SDS011;9598;50.954;3.112;2022-11-12T09:50:17;14.63;;;9.70;;
18931;SDS011;9598;50.954;3.112;2022-11-12T09:55:42;9.60;;;8.65;;
18931;SDS011;9598;50.954;3.112;2022-11-12T10:01:06;11.07;;;9.68;;
18931;SDS011;9598;50.954;3.112;2022-11-12T10:06:35;19.10;;;9.90;;
18931;SDS011;9598;50.954;3.112;2022-11-12T10:12:08;12.98;;;9.77;;
18931;SDS011;9598;50.954;3.112;2022-11-12T10:17:53;12.77;;;11.00;;
18931;SDS011;9598;50.954;3.112;2022-11-12T10:23:21;11.35;;;10.18;;
18931;SDS011;9598;50.954;3.112;2022-11-12T10:28:48;12.85;;;10.63;;
18931;SDS011;9598;50.954;3.112;2022-11-12T10:34:15;12.10;;;10.90;;
18931;SDS011;9598;50.954;3.112;2022-11-12T10:39:38;17.70;;;13.48;;
18931;SDS011;9598;50.954;3.112;2022-11-12T10:45:17;36.53;;;23.27;;
18931;SDS011;9598;50.954;3.112;2022-11-12T10:50:40;48.67;;;29.42;;
18931;SDS011;9598;50.954;3.112;2022-11-12T10:56:03;56.58;;;32.00;;
18931;SDS011;9598;50.954;3.112;2022-11-12T11:01:44;40.40;;;24.10;;
18931;SDS011;9598;50.954;3.112;2022-11-12T11:07:17;23.77;;;16.55;;
18931;SDS011;9598;50.954;3.112;2022-11-12T11:12:40;18.95;;;15.52;;
18931;SDS011;9598;50.954;3.112;2022-11-12T11:18:02;15.75;;;13.63;;
18931;SDS011;9598;50.954;3.112;2022-11-12T11:23:23;16.10;;;13.30;;
18931;SDS011;9598;50.954;3.112;2022-11-12T11:28:49;16.27;;;14.57;;
18931;SDS011;9598;50.954;3.112;2022-11-12T11:34:21;19.85;;;13.98;;
18931;SDS011;9598;50.954;3.112;2022-11-12T11:39:54;25.60;;;19.83;;
18931;SDS011;9598;50.954;3.112;2022-11-12T11:45:22;27.80;;;20.55;;
18931;SDS011;9598;50.954;3.112;2022-11-12T11:50:54;25.58;;;19.65;;
18931;SDS011;9598;50.954;3.112;2022-11-12T11:56:19;32.10;;;21.92;;
18931;SDS011;9598;50.954;3.112;2022-11-12T12:01:49;29.35;;;21.17;;
18931;SDS011;9598;50.954;3.112;2022-11-12T12:07:40;44.17;;;28.92;;
18931;SDS011;9598;50.954;3.112;2022-11-12T12:13:07;39.78;;;27.73;;
18931;SDS011;9598;50.954;3.112;2022-11-12T12:18:36;37.35;;;25.02;;
18931;SDS011;9598;50.954;3.112;2022-11-12T12:24:03;50.50;;;32.15;;
18931;SDS011;9598;50.954;3.112;2022-11-12T12:29:32;36.65;;;25.90;;
18931;SDS011;9598;50.954;3.112;2022-11-12T12:35:00;53.03;;;33.92;;
18931;SDS011;9598;50.954;3.112;2022-11-12T12:40:32;63.63;;;36.05;;
18931;SDS011;9598;50.954;3.112;2022-11-12T12:45:55;52.35;;;33.47;;
18931;SDS011;9598;50.954;3.112;2022-11-12T12:51:16;53.47;;;32.67;;
18931;SDS011;9598;50.954;3.112;2022-11-12T12:56:43;40.40;;;26.85;;
18931;SDS011;9598;50.954;3.112;2022-11-12T13:02:12;38.50;;;26.00;;
18931;SDS011;9598;50.954;3.112;2022-11-12T13:07:40;41.88;;;27.63;;
18931;SDS011;9598;50.954;3.112;2022-11-12T13:13:05;43.65;;;28.88;;
18931;SDS011;9598;50.954;3.112;2022-11-12T13:18:55;62.67;;;37.53;;
18931;SDS011;9598;50.954;3.112;2022-11-12T13:24:21;58.33;;;35.20;;
18931;SDS011;9598;50.954;3.112;2022-11-12T13:36:23;44.70;;;28.50;;
18931;SDS011;9598;50.954;3.112;2022-11-12T13:41:45;43.78;;;28.42;;
18931;SDS011;9598;50.954;3.112;2022-11-12T13:47:35;44.63;;;28.67;;
18931;SDS011;9598;50.954;3.112;2022-11-12T13:52:57;40.90;;;27.63;;
18931;SDS011;9598;50.954;3.112;2022-11-12T13:58:23;27.75;;;21.23;;
18931;SDS011;9598;50.954;3.112;2022-11-12T14:03:48;26.48;;;20.65;;
18931;SDS011;9598;50.954;3.112;2022-11-12T14:09:17;24.10;;;19.80;;
18931;SDS011;9598;50.954;3.112;2022-11-12T14:14:49;21.80;;;19.00;;
18931;SDS011;9598;50.954;3.112;2022-11-12T14:20:28;28.00;;;22.45;;
18931;SDS011;9598;50.954;3.112;2022-11-12T14:25:55;32.40;;;24.75;;
18931;SDS011;9598;50.954;3.112;2022-11-12T14:31:19;65.88;;;38.30;;
18931;SDS011;9598;50.954;3.112;2022-11-12T14:36:45;57.53;;;35.03;;
18931;SDS011;9598;50.954;3.112;2022-11-12T14:42:11;41.05;;;28.42;;
18931;SDS011;9598;50.954;3.112;2022-11-12T14:47:33;33.63;;;24.98;;
18931;SDS011;9598;50.954;3.112;2022-11-12T14:52:56;30.45;;;24.20;;
18931;SDS011;9598;50.954;3.112;2022-11-12T14:58:21;29.45;;;23.55;;
18931;SDS011;9598;50.954;3.112;2022-11-12T15:03:45;32.42;;;25.77;;
18931;SDS011;9598;50.954;3.112;2022-11-12T15:09:07;37.75;;;28.85;;
18931;SDS011;9598;50.954;3.112;2022-11-12T15:14:28;32.78;;;25.77;;
18931;SDS011;9598;50.954;3.112;2022-11-12T15:19:49;54.95;;;34.00;;
18931;SDS011;9598;50.954;3.112;2022-11-12T15:25:15;60.42;;;35.40;;
18931;SDS011;9598;50.954;3.112;2022-11-12T15:30:39;59.50;;;34.90;;
18931;SDS011;9598;50.954;3.112;2022-11-12T15:36:00;55.58;;;35.83;;
18931;SDS011;9598;50.954;3.112;2022-11-12T15:41:22;44.17;;;33.72;;
18931;SDS011;9598;50.954;3.112;2022-11-12T15:46:46;30.42;;;24.60;;
18931;SDS011;9598;50.954;3.112;2022-11-12T15:52:07;40.05;;;27.20;;
18931;SDS011;9598;50.954;3.112;2022-11-12T15:57:29;41.45;;;23.52;;
18931;SDS011;9598;50.954;3.112;2022-11-12T16:02:54;29.20;;;22.38;;
18931;SDS011;9598;50.954;3.112;2022-11-12T16:08:17;26.55;;;20.80;;
18931;SDS011;9598;50.954;3.112;2022-11-12T16:13:39;26.40;;;21.92;;
18931;SDS011;9598;50.954;3.112;2022-11-12T16:19:00;32.30;;;25.23;;
18931;SDS011;9598;50.954;3.112;2022-11-12T16:24:21;62.83;;;35.17;;
18931;SDS011;9598;50.954;3.112;2022-11-12T16:29:42;63.55;;;38.63;;
18931;SDS011;9598;50.954;3.112;2022-11-12T16:35:04;58.83;;;34.63;;
18931;SDS011;9598;50.954;3.112;2022-11-12T16:40:25;55.28;;;32.55;;
18931;SDS011;9598;50.954;3.112;2022-11-12T16:45:48;43.13;;;27.73;;
18931;SDS011;9598;50.954;3.112;2022-11-12T16:51:12;35.20;;;25.67;;
18931;SDS011;9598;50.954;3.112;2022-11-12T16:56:35;32.08;;;24.10;;
18931;SDS011;9598;50.954;3.112;2022-11-12T17:01:58;27.00;;;21.73;;
18931;SDS011;9598;50.954;3.112;2022-11-12T17:07:19;30.33;;;22.35;;
18931;SDS011;9598;50.954;3.112;2022-11-12T17:12:39;27.40;;;21.80;;
18931;SDS011;9598;50.954;3.112;2022-11-12T17:18:01;24.60;;;21.40;;
18931;SDS011;9598;50.954;3.112;2022-11-12T17:23:22;26.83;;;22.42;;
18931;SDS011;9598;50.954;3.112;2022-11-12T17:28:43;28.77;;;22.35;;
18931;SDS011;9598;50.954;3.112;2022-11-12T17:34:05;28.40;;;22.80;;
18931;SDS011;9598;50.954;3.112;2022-11-12T17:39:26;27.92;;;22.33;;
18931;SDS011;9598;50.954;3.112;2022-11-12T17:44:46;26.02;;;21.58;;
18931;SDS011;9598;50.954;3.112;2022-11-12T17:50:08;25.08;;;21.73;;
18931;SDS011;9598;50.954;3.112;2022-11-12T17:55:29;24.42;;;20.67;;
18931;SDS011;9598;50.954;3.112;2022-11-12T18:00:50;25.92;;;22.58;;
18931;SDS011;9598;50.954;3.112;2022-11-12T18:06:13;26.17;;;22.48;;
18931;SDS011;9598;50.954;3.112;2022-11-12T18:11:37;24.88;;;21.40;;
18931;SDS011;9598;50.954;3.112;2022-11-12T18:17:01;24.98;;;22.35;;
18931;SDS011;9598;50.954;3.112;2022-11-12T18:22:24;26.10;;;23.23;;
18931;SDS011;9598;50.954;3.112;2022-11-12T18:27:45;26.42;;;23.30;;
18931;SDS011;9598;50.954;3.112;2022-11-12T18:33:05;26.13;;;22.67;;
18931;SDS011;9598;50.954;3.112;2022-11-12T18:38:27;31.02;;;25.27;;
18931;SDS011;9598;50.954;3.112;2022-11-12T18:43:48;30.02;;;23.95;;
18931;SDS011;9598;50.954;3.112;2022-11-12T18:49:08;27.30;;;21.80;;
18931;SDS011;9598;50.954;3.112;2022-11-12T18:54:30;29.70;;;19.42;;
18931;SDS011;9598;50.954;3.112;2022-11-12T18:59:51;29.38;;;22.10;;
18931;SDS011;9598;50.954;3.112;2022-11-12T19:05:12;35.08;;;24.08;;
18931;SDS011;9598;50.954;3.112;2022-11-12T19:10:34;27.25;;;21.55;;
18931;SDS011;9598;50.954;3.112;2022-11-12T19:16:00;30.20;;;21.48;;
18931;SDS011;9598;50.954;3.112;2022-11-12T19:21:22;23.40;;;19.73;;
18931;SDS011;9598;50.954;3.112;2022-11-12T19:26:45;24.23;;;20.27;;
18931;SDS011;9598;50.954;3.112;2022-11-12T19:32:06;28.70;;;24.17;;
18931;SDS011;9598;50.954;3.112;2022-11-12T19:37:27;24.20;;;20.33;;
18931;SDS011;9598;50.954;3.112;2022-11-12T19:42:49;25.80;;;21.85;;
18931;SDS011;9598;50.954;3.112;2022-11-12T19:48:10;29.08;;;21.83;;
18931;SDS011;9598;50.954;3.112;2022-11-12T19:53:30;32.08;;;24.48;;
18931;SDS011;9598;50.954;3.112;2022-11-12T19:58:52;31.60;;;24.15;;
18931;SDS011;9598;50.954;3.112;2022-11-12T20:04:13;31.23;;;24.05;;
18931;SDS011;9598;50.954;3.112;2022-11-12T20:09:34;33.72;;;25.60;;
18931;SDS011;9598;50.954;3.112;2022-11-12T20:14:57;33.35;;;25.77;;
18931;SDS011;9598;50.954;3.112;2022-11-12T20:20:18;30.17;;;24.77;;
18931;SDS011;9598;50.954;3.112;2022-11-12T20:25:38;44.70;;;33.65;;
18931;SDS011;9598;50.954;3.112;2022-11-12T20:31:01;44.75;;;36.28;;
18931;SDS011;9598;50.954;3.112;2022-11-12T20:36:23;41.53;;;32.58;;
18931;SDS011;9598;50.954;3.112;2022-11-12T20:41:44;34.35;;;28.85;;
18931;SDS011;9598;50.954;3.112;2022-11-12T20:47:07;28.13;;;24.85;;
18931;SDS011;9598;50.954;3.112;2022-11-12T20:52:28;28.80;;;25.70;;
18931;SDS011;9598;50.954;3.112;2022-11-12T20:57:49;27.38;;;24.48;;
18931;SDS011;9598;50.954;3.112;2022-11-12T21:03:10;30.25;;;26.98;;
18931;SDS011;9598;50.954;3.112;2022-11-12T21:08:31;28.42;;;25.70;;
18931;SDS011;9598;50.954;3.112;2022-11-12T21:13:52;27.77;;;24.88;;
18931;SDS011;9598;50.954;3.112;2022-11-12T21:19:14;29.00;;;26.08;;
18931;SDS011;9598;50.954;3.112;2022-11-12T21:24:35;26.65;;;23.98;;
18931;SDS011;9598;50.954;3.112;2022-11-12T21:29:56;28.92;;;26.02;;
18931;SDS011;9598;50.954;3.112;2022-11-12T21:35:18;27.13;;;24.63;;
18931;SDS011;9598;50.954;3.112;2022-11-12T21:40:39;26.25;;;23.80;;
18931;SDS011;9598;50.954;3.112;2022-11-12T21:45:59;26.17;;;23.58;;
18931;SDS011;9598;50.954;3.112;2022-11-12T21:51:22;25.83;;;23.45;;
18931;SDS011;9598;50.954;3.112;2022-11-12T21:56:43;25.17;;;22.77;;
18931;SDS011;9598;50.954;3.112;2022-11-12T22:02:04;25.95;;;23.42;;
18931;SDS011;9598;50.954;3.112;2022-11-12T22:07:26;23.77;;;21.48;;
18931;SDS011;9598;50.954;3.112;2022-11-12T22:12:46;23.27;;;20.98;;
18931;SDS011;9598;50.954;3.112;2022-11-12T22:18:07;23.63;;;21.23;;
18931;SDS011;9598;50.954;3.112;2022-11-12T22:23:29;24.13;;;21.85;;
18931;SDS011;9598;50.954;3.112;2022-11-12T22:28:54;23.90;;;21.52;;
18931;SDS011;9598;50.954;3.112;2022-11-12T22:34:15;22.73;;;20.63;;
18931;SDS011;9598;50.954;3.112;2022-11-12T22:39:37;21.55;;;19.55;;
18931;SDS011;9598;50.954;3.112;2022-11-12T22:44:57;22.10;;;20.00;;
18931;SDS011;9598;50.954;3.112;2022-11-12T22:50:18;20.42;;;18.48;;
18931;SDS011;9598;50.954;3.112;2022-11-12T22:55:40;20.35;;;18.40;;
18931;SDS011;9598;50.954;3.112;2022-11-12T23:01:01;20.08;;;18.08;;
18931;SDS011;9598;50.954;3.112;2022-11-12T23:06:22;20.05;;;18.08;;
18931;SDS011;9598;50.954;3.112;2022-11-12T23:11:44;20.27;;;18.23;;
18931;SDS011;9598;50.954;3.112;2022-11-12T23:17:04;20.88;;;18.92;;
18931;SDS011;9598;50.954;3.112;2022-11-12T23:22:24;20.90;;;18.80;;
18931;SDS011;9598;50.954;3.112;2022-11-12T23:27:47;21.00;;;18.92;;
18931;SDS011;9598;50.954;3.112;2022-11-12T23:33:07;22.73;;;20.33;;
18931;SDS011;9598;50.954;3.112;2022-11-12T23:38:27;21.13;;;19.02;;
18931;SDS011;9598;50.954;3.112;2022-11-12T23:43:49;21.00;;;18.92;;
18931;SDS011;9598;50.954;3.112;2022-11-12T23:49:11;20.27;;;18.17;;
18931;SDS011;9598;50.954;3.112;2022-11-12T23:54:31;20.20;;;18.10;;
18931;SDS011;9598;50.954;3.112;2022-11-12T23:59:53;19.58;;;17.33;;
